Time;durP1;ratioP1;P1;durP2;ratioP2;P2;SDS_P1;SDS_P2;PMS_P1;PMS_P2;Temp;Humidity;BMP_temperature;BMP_pressure;BME280_temperature;BME280_humidity;BME280_pressure;Samples;Min_cycle;Max_cycle;Signal;HPM_P1;HPM_P2
2022/05/01 00:01:21;;;;;;;4.47;3.93;;;;;;;16.05;53.00;94999.16;5042130;28;20279;-77
2022/05/01 00:03:52;;;;;;;4.60;4.20;;;;;;;15.98;53.00;94990.47;5049837;28;20682;-78
2022/05/01 00:06:22;;;;;;;6.40;4.60;;;;;;;15.66;53.10;94948.25;5025126;28;20195;-78
2022/05/01 00:08:52;;;;;;;4.87;3.83;;;;;;;15.94;53.12;94996.94;5049522;28;20712;-79
2022/05/01 00:11:29;;;;;;;7.20;4.20;;;;;;;15.98;53.19;95001.59;5031835;28;20657;-78
2022/05/01 00:14:19;;;;;;;5.10;3.93;;;;;;;15.74;53.23;94961.16;5049349;28;20220;-80
2022/05/01 00:16:52;;;;;;;4.33;3.77;;;;;;;15.91;53.37;94982.56;5031716;28;20262;-79
2022/05/01 00:19:24;;;;;;;7.00;4.27;;;;;;;15.90;53.37;94980.16;5024238;28;20634;-80
2022/05/01 00:21:52;;;;;;;5.30;4.40;;;;;;;15.80;53.29;94973.41;5049112;28;20202;-79
2022/05/01 00:24:26;;;;;;;5.43;4.23;;;;;;;15.82;53.23;94975.03;5049117;28;20288;-79
2022/05/01 00:27:03;;;;;;;4.10;3.70;;;;;;;15.81;53.21;94976.78;5048812;28;20194;-79
2022/05/01 00:29:32;;;;;;;5.17;3.83;;;;;;;15.82;53.32;94980.97;5035784;28;20222;-80
2022/05/01 00:32:02;;;;;;;6.60;4.70;;;;;;;15.66;53.31;94960.34;5059976;28;20199;-78
2022/05/01 00:37:17;;;;;;;5.07;4.10;;;;;;;15.73;53.46;94980.19;5057512;28;20214;-79
2022/05/01 00:39:48;;;;;;;5.23;3.90;;;;;;;15.71;53.47;94974.38;5054451;28;20256;-79
2022/05/01 00:42:17;;;;;;;5.37;4.47;;;;;;;15.71;53.54;94968.41;5049975;28;20223;-79
2022/05/01 00:44:44;;;;;;;5.10;4.60;;;;;;;15.60;53.49;94954.06;5049297;28;20681;-78
2022/05/01 00:47:11;;;;;;;4.47;4.07;;;;;;;15.64;54.04;94970.84;5049695;28;20226;-78
2022/05/01 00:49:38;;;;;;;4.13;3.73;;;;;;;15.64;53.96;94965.69;5049250;28;20203;-78
2022/05/01 00:52:08;;;;;;;4.53;3.83;;;;;;;15.61;54.27;94970.31;5051548;28;20179;-77
2022/05/01 00:54:39;;;;;;;4.53;4.10;;;;;;;15.62;54.22;94974.50;5052853;28;20285;-79
2022/05/01 00:57:08;;;;;;;3.70;3.40;;;;;;;15.61;54.32;94970.31;5053124;28;20274;-79
2022/05/01 00:59:42;;;;;;;3.87;3.57;;;;;;;15.60;54.33;94976.44;5052476;28;20195;-79
2022/05/01 01:02:09;;;;;;;5.20;4.23;;;;;;;15.60;54.42;94969.53;5035314;28;20252;-79
2022/05/01 01:04:38;;;;;;;6.57;4.67;;;;;;;15.45;54.42;94945.34;5018434;28;20191;-79
2022/05/01 01:07:14;;;;;;;4.27;3.87;;;;;;;15.57;54.56;94960.31;5035152;28;20309;-79
2022/05/01 01:09:47;;;;;;;4.37;3.97;;;;;;;15.44;54.30;94948.91;5052799;28;20670;-79
2022/05/01 01:15:28;;;;;;;4.67;4.27;;;;;;;15.37;55.27;94945.34;4979412;28;20179;-79
2022/05/01 01:17:57;;;;;;;5.60;5.10;;;;;;;15.48;55.31;94968.22;4974769;28;20248;-79
2022/05/01 01:20:31;;;;;;;5.37;4.10;;;;;;;15.46;55.36;94970.16;4990999;28;20197;-80
2022/05/01 01:23:02;;;;;;;5.47;4.93;;;;;;;15.43;56.03;94965.34;4962628;28;20224;-79
2022/05/01 01:25:37;;;;;;;9.40;5.10;;;;;;;15.41;56.43;94970.63;4959544;28;20202;-79
2022/05/01 01:28:09;;;;;;;6.20;4.87;;;;;;;15.26;56.44;94938.75;4973778;28;20610;-79
2022/05/01 01:33:24;;;;;;;5.37;4.63;;;;;;;15.36;56.72;94949.69;4972475;28;20181;-80
2022/05/01 01:35:53;;;;;;;5.00;4.57;;;;;;;15.37;56.75;94953.06;4971975;28;20213;-80
2022/05/01 01:38:24;;;;;;;8.03;4.40;;;;;;;15.03;56.71;94897.34;4956140;28;20229;-80
2022/05/01 01:40:54;;;;;;;4.77;4.30;;;;;;;15.31;57.14;94945.03;4981011;28;20623;-80
2022/05/01 01:43:25;;;;;;;5.97;5.17;;;;;;;15.32;57.12;94950.97;4993548;28;20252;-80
2022/05/01 01:45:52;;;;;;;5.30;4.63;;;;;;;15.26;57.34;94949.84;4993096;28;20224;-78
2022/05/01 01:48:21;;;;;;;5.50;5.00;;;;;;;15.25;57.66;94947.44;4991726;28;20194;-78
2022/05/01 01:50:58;;;;;;;5.77;4.97;;;;;;;15.25;58.03;94950.81;5052213;28;20186;-78
2022/05/01 01:53:28;;;;;;;4.90;4.50;;;;;;;15.25;57.62;94953.41;5051385;28;20187;-77
2022/05/01 01:55:58;;;;;;;6.30;4.50;;;;;;;15.26;57.49;94955.00;5051620;28;20854;-78
2022/05/01 01:58:28;;;;;;;6.70;4.93;;;;;;;15.24;57.73;94950.97;5034225;28;20326;-78
2022/05/01 02:00:57;;;;;;;4.97;4.53;;;;;;;15.25;57.81;94947.44;5032310;28;20192;-79
2022/05/01 02:03:25;;;;;;;5.87;4.60;;;;;;;15.18;57.85;94934.38;5030925;28;20206;-77
2022/05/01 02:05:54;;;;;;;7.10;4.80;;;;;;;15.19;57.79;94941.13;5014422;28;20195;-78
2022/05/01 02:08:23;;;;;;;6.27;4.70;;;;;;;15.25;57.98;94955.19;5031749;28;20223;-79
2022/05/01 02:10:52;;;;;;;10.43;5.27;;;;;;;15.26;57.66;94946.47;5032122;28;20195;-77
2022/05/01 02:13:21;;;;;;;5.83;4.83;;;;;;;15.06;57.61;94912.47;5031713;28;20191;-77
2022/05/01 02:15:49;;;;;;;6.53;4.80;;;;;;;15.24;57.83;94948.38;5014639;28;20195;-79
2022/05/01 02:18:20;;;;;;;5.37;4.87;;;;;;;15.24;57.75;94936.34;5031985;28;20208;-78
2022/05/01 02:23:34;;;;;;;5.93;5.30;;;;;;;15.12;58.40;94936.81;5051465;28;20272;-78
2022/05/01 02:26:06;;;;;;;7.27;5.17;;;;;;;15.05;58.07;94918.59;5033810;28;20201;-79
2022/05/01 02:28:33;;;;;;;5.97;5.47;;;;;;;15.21;57.93;94961.59;5051314;28;20202;-79
2022/05/01 02:31:06;;;;;;;5.20;4.70;;;;;;;15.22;57.86;94945.19;5051786;28;20211;-79
2022/05/01 02:33:33;;;;;;;6.70;5.67;;;;;;;15.21;57.93;94948.72;5051541;28;20210;-80
2022/05/01 02:36:03;;;;;;;5.53;5.03;;;;;;;15.04;58.16;94933.25;5051496;28;20218;-80
2022/05/01 02:38:34;;;;;;;6.57;5.60;;;;;;;15.17;58.46;94944.84;5032972;28;20227;-79
2022/05/01 02:41:03;;;;;;;5.53;5.03;;;;;;;15.15;58.43;94942.41;5051471;28;20187;-80
2022/05/01 02:43:30;;;;;;;6.53;5.93;;;;;;;15.15;58.25;94937.28;5050880;28;20218;-79
2022/05/01 02:45:58;;;;;;;5.60;5.10;;;;;;;15.08;58.02;94925.22;5051239;28;20588;-79
2022/05/01 02:48:26;;;;;;;6.53;5.37;;;;;;;15.16;58.14;94940.69;5033130;28;20589;-79
2022/05/01 02:50:55;;;;;;;5.63;5.13;;;;;;;15.14;58.30;94940.81;5050960;28;20554;-76
2022/05/01 02:53:24;;;;;;;5.93;5.30;;;;;;;14.99;58.28;94920.03;5050605;28;20286;-79
2022/05/01 02:55:51;;;;;;;6.07;5.53;;;;;;;14.90;58.51;94909.91;5051042;28;20191;-79
2022/05/01 02:58:20;;;;;;;7.17;5.40;;;;;;;15.01;58.63;94933.56;5050305;28;20226;-77
2022/05/01 03:00:47;;;;;;;6.30;5.80;;;;;;;15.06;58.74;94940.81;5050522;28;20191;-79
2022/05/01 03:03:29;;;;;;;6.37;5.73;;;;;;;15.06;58.86;94949.34;5033157;28;20187;-79
2022/05/01 03:05:58;;;;;;;7.13;5.90;;;;;;;14.99;59.23;94940.66;5018483;28;20194;-79
2022/05/01 03:08:28;;;;;;;6.77;6.07;;;;;;;15.01;58.98;94945.63;5049944;28;20225;-79
2022/05/01 03:10:55;;;;;;;6.50;5.90;;;;;;;15.01;59.01;94943.84;5050558;28;20191;-79
2022/05/01 03:13:26;;;;;;;7.33;6.37;;;;;;;14.98;59.14;94945.94;5032580;28;20650;-79
2022/05/01 03:15:57;;;;;;;6.17;5.67;;;;;;;14.75;59.17;94917.41;5050162;28;20195;-80
2022/05/01 03:24:00;;;;;;;6.13;5.53;;;;;;;15.00;59.07;94946.59;5050376;28;20735;-80
2022/05/01 03:26:27;;;;;;;6.50;5.90;;;;;;;15.01;58.92;94961.09;5050314;28;20191;-79
2022/05/01 03:28:55;;;;;;;6.47;5.87;;;;;;;14.92;58.75;94952.53;5050474;28;20736;-79
2022/05/01 03:31:22;;;;;;;10.70;6.73;;;;;;;15.01;58.83;94971.38;5050086;28;20203;-79
2022/05/01 03:33:49;;;;;;;7.40;6.30;;;;;;;15.01;58.45;94968.81;5050364;28;20191;-79
2022/05/01 03:36:17;;;;;;;6.67;6.00;;;;;;;14.86;58.33;94947.22;5042275;28;20273;-80
2022/05/01 03:38:46;;;;;;;6.37;5.87;;;;;;;14.91;58.13;94956.09;5049284;28;20223;-80
2022/05/01 03:44:03;;;;;;;7.33;5.90;;;;;;;15.06;57.77;94974.28;5049958;28;20198;-81
2022/05/01 03:46:45;;;;;;;6.07;5.57;;;;;;;15.10;57.64;94990.25;5034834;28;20546;-82
2022/05/01 03:49:26;;;;;;;7.97;5.70;;;;;;;15.10;57.46;95000.53;5032510;28;20191;-82
2022/05/01 03:51:56;;;;;;;6.40;5.57;;;;;;;15.13;57.39;94995.09;5033484;28;20286;-79
2022/05/01 03:54:26;;;;;;;6.50;5.70;;;;;;;15.15;57.26;94993.94;5049719;28;20221;-81
2022/05/01 03:56:54;;;;;;;7.87;5.40;;;;;;;15.18;57.31;94985.91;5031473;28;20759;-79
2022/05/01 03:59:26;;;;;;;5.77;5.27;;;;;;;15.07;57.38;94970.78;5049456;28;20194;-78
2022/05/01 04:01:53;;;;;;;6.33;5.70;;;;;;;15.22;57.19;95000.09;5049586;28;20194;-76
2022/05/01 04:04:20;;;;;;;5.87;5.37;;;;;;;15.26;56.93;94998.00;5049969;28;20569;-79
2022/05/01 04:09:33;;;;;;;8.77;5.57;;;;;;;15.31;57.19;95004.28;5050196;28;20202;-78
2022/05/01 04:12:02;;;;;;;5.83;5.33;;;;;;;15.32;57.05;95005.88;5016134;28;20847;-77
2022/05/01 04:14:33;;;;;;;8.33;5.67;;;;;;;15.34;57.24;95008.31;5031933;28;20198;-77
2022/05/01 04:17:01;;;;;;;5.50;5.00;;;;;;;15.38;57.21;95013.97;5049130;28;20252;-75
2022/05/01 04:19:29;;;;;;;6.30;5.70;;;;;;;15.40;57.25;95018.00;5049704;28;20195;-77
2022/05/01 04:21:58;;;;;;;5.47;4.90;;;;;;;15.42;57.57;95015.28;5049447;28;20716;-82
2022/05/01 04:24:26;;;;;;;7.67;5.67;;;;;;;15.42;57.76;95010.13;5049688;28;20222;-82
2022/05/01 04:26:52;;;;;;;6.63;5.97;;;;;;;15.41;57.57;95006.72;5033543;28;20251;-77
2022/05/01 04:29:43;;;;;;;6.70;6.00;;;;;;;15.50;57.88;95015.25;5053614;28;20199;-77
2022/05/01 04:32:16;;;;;;;7.40;6.70;;;;;;;15.59;57.51;95018.63;5035982;28;20248;-79
2022/05/01 04:34:49;;;;;;;6.13;5.53;;;;;;;15.64;57.53;95011.25;5037328;28;20244;-82
2022/05/01 04:40:16;;;;;;;6.73;6.13;;;;;;;15.85;57.29;94997.91;5054008;28;20561;-81
2022/05/01 04:42:43;;;;;;;5.93;5.33;;;;;;;16.17;57.97;95002.22;5057024;28;20205;-78
2022/05/01 04:45:12;;;;;;;8.80;5.97;;;;;;;16.54;59.05;95006.81;5055533;28;20218;-78
2022/05/01 04:47:40;;;;;;;6.30;5.70;;;;;;;16.92;59.95;95002.63;5058266;28;20267;-78
2022/05/01 04:50:09;;;;;;;7.20;4.97;;;;;;;17.26;60.30;94978.22;5053347;28;20187;-76
2022/05/01 04:52:37;;;;;;;6.83;5.27;;;;;;;17.91;60.80;94995.03;5054734;28;20191;-79
2022/05/01 04:55:05;;;;;;;5.10;4.60;;;;;;;18.51;60.49;94994.13;5032900;28;20230;-78
2022/05/01 04:57:32;;;;;;;5.53;4.70;;;;;;;19.16;59.79;94997.72;5033294;28;20253;-77
2022/05/01 05:00:00;;;;;;;4.70;4.10;;;;;;;19.84;58.83;95001.63;5042096;28;20190;-77
2022/05/01 05:02:43;;;;;;;6.47;4.67;;;;;;;20.62;57.53;95002.38;5052755;28;20187;-77
2022/05/01 05:05:24;;;;;;;6.63;4.23;;;;;;;21.38;55.52;95004.91;5035135;28;20249;-77
2022/05/01 05:07:53;;;;;;;4.77;3.93;;;;;;;22.12;53.86;95013.59;5053231;28;20209;-80
2022/05/01 05:10:19;;;;;;;4.47;4.03;;;;;;;22.77;52.17;95007.47;5035360;28;20191;-80
2022/05/01 05:12:48;;;;;;;5.35;4.25;;;;;;;23.38;50.43;95010.66;5060914;28;20272;-78
2022/05/01 05:15:20;;;;;;;6.40;4.40;;;;;;;23.91;48.92;95015.56;5065074;28;20183;-78
2022/05/01 05:17:47;;;;;;;4.57;4.10;;;;;;;24.39;47.42;95018.41;5052473;28;20318;-79
2022/05/01 05:20:15;;;;;;;6.20;3.97;;;;;;;24.71;46.36;95000.81;5052454;28;20191;-81
2022/05/01 05:22:43;;;;;;;12.43;4.50;;;;;;;25.08;44.86;95005.22;5041801;28;20214;-81
2022/05/01 05:25:12;;;;;;;4.80;4.25;;;;;;;25.47;44.28;95023.06;5053513;28;20211;-81
2022/05/01 05:27:39;;;;;;;4.43;4.03;;;;;;;25.78;43.54;95026.50;5052385;28;20210;-83
2022/05/01 05:30:08;;;;;;;5.40;3.92;;;;;;;26.08;42.80;95025.63;5052693;28;20199;-80
2022/05/01 05:32:35;;;;;;;5.43;4.22;;;;;;;26.37;42.31;95024.75;5052608;28;20245;-79
2022/05/01 05:35:02;;;;;;;7.22;4.30;;;;;;;26.75;41.65;95026.94;5052830;28;20218;-77
2022/05/01 05:37:31;;;;;;;4.43;4.03;;;;;;;27.11;40.70;95032.16;5051535;28;20183;-80
2022/05/01 05:39:57;;;;;;;4.65;4.20;;;;;;;27.46;40.18;95030.22;5052479;28;20186;-79
2022/05/01 05:42:24;;;;;;;5.22;3.97;;;;;;;27.78;40.04;95021.06;5052454;28;20195;-82
2022/05/01 05:44:52;;;;;;;4.78;3.83;;;;;;;28.11;38.51;95012.38;5052308;28;20195;-80
2022/05/01 05:47:19;;;;;;;5.07;3.88;;;;;;;28.58;37.98;95023.38;5052529;28;20187;-80
2022/05/01 05:49:47;;;;;;;6.05;4.57;;;;;;;28.93;37.78;95027.53;5052295;28;20195;-79
2022/05/01 05:52:15;;;;;;;4.30;3.90;;;;;;;29.29;37.71;95020.09;5050644;28;20282;-76
2022/05/01 05:54:43;;;;;;;4.07;3.70;;;;;;;29.67;37.29;95027.13;5051990;28;20207;-78
2022/05/01 05:57:10;;;;;;;4.18;3.70;;;;;;;30.04;36.87;95031.66;5052097;28;20264;-78
2022/05/01 05:59:37;;;;;;;5.00;3.80;;;;;;;30.40;35.83;95035.41;5052271;28;20218;-77
2022/05/01 06:02:05;;;;;;;5.53;4.18;;;;;;;30.67;35.53;95030.81;5052131;28;20194;-78
2022/05/01 06:04:31;;;;;;;7.40;4.32;;;;;;;30.65;36.05;95035.56;5051776;28;20199;-76
2022/05/01 06:06:59;;;;;;;4.18;3.88;;;;;;;30.42;36.19;95026.19;5033994;28;20195;-78
2022/05/01 06:09:26;;;;;;;7.18;3.72;;;;;;;30.40;36.78;95041.50;5015355;28;20247;-78
2022/05/01 06:11:54;;;;;;;6.10;4.38;;;;;;;30.30;37.37;95043.25;5030135;28;20617;-79
2022/05/01 06:14:21;;;;;;;7.82;4.25;;;;;;;30.22;38.11;95042.69;5029408;28;20195;-77
2022/05/01 06:16:48;;;;;;;5.55;3.63;;;;;;;30.16;37.95;95045.50;5045958;28;20674;-80
2022/05/01 06:19:16;;;;;;;4.28;3.95;;;;;;;30.09;38.17;95043.03;5054560;28;20230;-83
2022/05/01 06:21:42;;;;;;;9.90;3.92;;;;;;;30.03;38.78;95038.78;5049401;28;20214;-80
2022/05/01 06:24:09;;;;;;;13.73;3.92;;;;;;;30.00;39.29;95042.72;5049202;28;20238;-77
2022/05/01 06:26:36;;;;;;;9.70;3.92;;;;;;;29.94;38.55;95045.56;5049789;28;20563;-80
2022/05/01 06:29:04;;;;;;;4.43;4.03;;;;;;;29.83;37.91;95041.22;5052530;28;20393;-81
2022/05/01 06:31:32;;;;;;;7.90;3.80;;;;;;;29.74;37.38;95036.41;5049521;28;20202;-76
2022/05/01 06:33:59;;;;;;;8.00;3.72;;;;;;;29.67;37.36;95043.75;5049671;28;20203;-80
2022/05/01 06:36:30;;;;;;;5.15;3.60;;;;;;;29.61;37.57;95039.44;5048809;28;20260;-81
2022/05/01 06:38:57;;;;;;;4.75;3.80;;;;;;;29.40;37.10;95019.94;5063235;28;20225;-86
2022/05/01 06:41:29;;;;;;;3.78;3.35;;;;;;;29.48;37.62;95040.59;5052574;28;20282;-84
2022/05/01 06:46:53;;;;;;;5.40;3.75;;;;;;;29.15;37.83;94999.41;5068399;28;20198;-79
2022/05/01 06:49:22;;;;;;;4.45;3.92;;;;;;;29.21;37.98;95000.25;5055560;28;20670;-78
2022/05/01 06:51:51;;;;;;;4.13;3.72;;;;;;;29.37;37.96;95038.91;5050119;28;20183;-78
2022/05/01 06:57:01;;;;;;;13.95;4.68;;;;;;;29.38;38.31;95032.59;5048795;28;20964;-77
2022/05/01 06:59:38;;;;;;;7.90;3.65;;;;;;;29.07;37.67;94978.78;5043908;28;20227;-81
2022/05/01 07:02:33;;;;;;;9.75;4.38;;;;;;;29.40;38.29;95024.44;5013278;28;20203;-78
2022/05/01 07:05:06;;;;;;;11.90;4.35;;;;;;;29.41;36.45;95026.03;5030134;28;20202;-81
2022/05/01 07:07:34;;;;;;;6.82;3.75;;;;;;;29.38;37.71;95023.88;5046952;28;20567;-78
2022/05/01 07:10:09;;;;;;;4.75;4.03;;;;;;;29.35;37.05;95012.00;5041468;28;20234;-80
2022/05/01 07:12:41;;;;;;;4.53;3.88;;;;;;;29.48;37.60;95019.50;5047729;28;20202;-80
2022/05/01 07:15:09;;;;;;;7.50;3.45;;;;;;;29.52;38.01;95019.03;5030380;28;20313;-79
2022/05/01 07:17:37;;;;;;;6.13;3.78;;;;;;;29.66;36.52;95026.34;5047877;28;20199;-78
2022/05/01 07:20:04;;;;;;;4.72;3.40;;;;;;;29.95;35.82;95032.13;5050962;28;20233;-86
2022/05/01 07:22:31;;;;;;;4.10;3.80;;;;;;;30.34;34.05;95026.66;5050535;28;20223;-84
2022/05/01 07:24:58;;;;;;;7.20;3.08;;;;;;;30.78;33.83;95026.41;5053895;28;20182;-84
2022/05/01 07:27:25;;;;;;;3.80;3.40;;;;;;;31.18;33.32;95017.09;5052479;28;20195;-84
2022/05/01 07:29:52;;;;;;;4.00;3.60;;;;;;;31.53;32.21;95015.66;5052608;28;20206;-84
2022/05/01 07:32:19;;;;;;;4.85;3.63;;;;;;;31.58;31.35;94992.66;5051743;28;20562;-85
2022/05/01 07:34:47;;;;;;;6.00;3.65;;;;;;;31.52;30.73;94942.66;5051888;28;20190;-83
2022/05/01 07:37:14;;;;;;;3.85;3.50;;;;;;;31.46;30.51;94910.91;5051259;28;20194;-83
2022/05/01 07:39:41;;;;;;;5.10;3.88;;;;;;;32.15;30.56;94999.56;5051080;28;20246;-83
2022/05/01 07:42:10;;;;;;;3.67;3.35;;;;;;;32.07;30.08;94989.53;5050318;28;20310;-84
2022/05/01 07:44:37;;;;;;;3.92;3.42;;;;;;;32.15;30.05;95026.03;5052493;28;20654;-83
2022/05/01 07:47:04;;;;;;;4.47;3.90;;;;;;;32.02;30.22;95025.78;5050596;28;20191;-83
2022/05/01 07:49:31;;;;;;;6.55;4.25;;;;;;;31.69;30.76;95006.66;5050446;28;20631;-82
2022/05/01 07:51:59;;;;;;;4.15;3.80;;;;;;;31.70;30.70;95026.78;5050977;28;20191;-85
2022/05/01 07:54:26;;;;;;;4.03;3.72;;;;;;;31.62;29.98;95032.59;5051223;28;20187;-83
2022/05/01 07:56:53;;;;;;;5.40;3.20;;;;;;;31.51;30.10;95025.69;5051345;28;20689;-84
2022/05/01 07:59:20;;;;;;;5.13;3.50;;;;;;;31.41;29.81;95021.94;5051575;28;20725;-83
2022/05/01 08:01:47;;;;;;;5.43;4.15;;;;;;;31.42;29.79;95033.31;5051253;28;20191;-83
2022/05/01 08:04:28;;;;;;;3.88;3.58;;;;;;;31.41;29.99;95006.09;5053345;28;20183;-84
2022/05/01 08:06:55;;;;;;;5.15;3.42;;;;;;;31.60;29.74;95016.97;5049159;28;20194;-82
2022/05/01 08:09:24;;;;;;;3.80;3.50;;;;;;;31.76;29.92;95030.22;5052407;28;20195;-84
2022/05/01 08:11:51;;;;;;;3.83;3.53;;;;;;;31.24;29.95;94918.28;5051842;28;20636;-84
2022/05/01 08:14:18;;;;;;;4.45;3.63;;;;;;;32.10;29.64;95026.06;5051330;28;20214;-85
2022/05/01 08:16:46;;;;;;;3.78;3.30;;;;;;;31.95;29.60;94971.28;5051124;28;20179;-84
2022/05/01 08:21:58;;;;;;;3.88;3.50;;;;;;;32.19;28.91;94970.72;5066642;28;20214;-85
2022/05/01 08:24:26;;;;;;;3.90;3.50;;;;;;;32.43;28.62;94997.47;5065462;28;20226;-84
2022/05/01 08:26:53;;;;;;;4.13;3.72;;;;;;;32.55;28.31;95021.00;5052260;28;20589;-83
2022/05/01 08:29:20;;;;;;;4.10;3.30;;;;;;;32.55;27.83;95013.06;5051434;28;20658;-83
2022/05/01 08:31:47;;;;;;;3.92;3.60;;;;;;;32.51;27.86;95014.66;5050318;28;20666;-84
2022/05/01 08:34:14;;;;;;;3.90;3.50;;;;;;;32.56;27.66;95014.66;5057365;28;20199;-84
2022/05/01 08:36:41;;;;;;;3.72;3.40;;;;;;;32.00;27.59;94914.91;5073756;28;20187;-84
2022/05/01 08:39:09;;;;;;;3.53;3.22;;;;;;;32.56;27.68;95010.16;5074130;28;20199;-84
2022/05/01 08:41:37;;;;;;;3.15;2.90;;;;;;;32.59;27.29;95001.66;5074167;28;20199;-85
2022/05/01 08:44:05;;;;;;;3.70;3.20;;;;;;;32.54;26.90;94985.00;5072219;28;20182;-84
2022/05/01 08:47:10;;;;;;;4.55;3.03;;;;;;;32.60;27.11;95010.41;5068191;28;20218;-84
2022/05/01 08:49:38;;;;;;;3.92;3.13;;;;;;;32.13;27.24;94940.03;5068511;28;20183;-85
2022/05/01 08:52:08;;;;;;;5.00;3.38;;;;;;;32.38;27.11;94989.50;5072512;28;20203;-83
2022/05/01 08:54:35;;;;;;;4.40;3.20;;;;;;;32.25;27.22;94990.03;5072556;28;20370;-84
2022/05/01 08:57:04;;;;;;;2.80;2.60;;;;;;;31.54;27.26;94888.47;5059246;28;20194;-83
2022/05/01 08:59:31;;;;;;;3.70;3.40;;;;;;;32.00;27.30;94996.94;5051755;28;20585;-84
2022/05/01 09:01:58;;;;;;;4.50;3.28;;;;;;;31.94;26.50;94982.91;5062587;28;20198;-83
2022/05/01 09:04:26;;;;;;;2.88;2.67;;;;;;;31.89;26.68;94982.91;5057753;28;20207;-84
2022/05/01 09:06:54;;;;;;;3.03;2.83;;;;;;;31.07;26.91;94856.94;5055774;28;20190;-84
2022/05/01 09:09:23;;;;;;;2.75;2.55;;;;;;;31.83;26.73;94975.22;5053063;28;20272;-84
2022/05/01 09:14:38;;;;;;;3.13;2.88;;;;;;;31.73;27.07;94982.06;5055322;28;20186;-83
2022/05/01 09:17:17;;;;;;;2.67;2.38;;;;;;;31.66;27.10;94963.03;5056893;28;20195;-84
2022/05/01 09:19:47;;;;;;;3.58;2.85;;;;;;;31.58;26.90;94952.19;5055796;28;20717;-85
2022/05/01 09:22:14;;;;;;;2.63;2.42;;;;;;;31.52;26.66;94961.16;5054018;28;20187;-83
2022/05/01 09:24:43;;;;;;;3.13;2.92;;;;;;;31.40;26.68;94954.28;5052492;28;20198;-85
2022/05/01 09:27:32;;;;;;;2.75;2.55;;;;;;;31.38;27.01;94952.94;5061945;28;20222;-85
2022/05/01 09:30:32;;;;;;;2.92;2.70;;;;;;;31.09;27.05;94940.19;5064740;28;20242;-84
2022/05/01 09:33:01;;;;;;;2.50;2.30;;;;;;;31.10;26.95;94947.03;5045041;28;20187;-84
2022/05/01 09:35:32;;;;;;;3.15;2.20;;;;;;;30.98;27.41;94944.63;5065151;28;20205;-85
2022/05/01 09:38:16;;;;;;;3.05;2.28;;;;;;;30.60;26.55;94902.72;5056154;28;20576;-85
2022/05/01 09:43:45;;;;;;;3.92;2.45;;;;;;;30.69;27.22;94943.41;5053110;28;20665;-84
2022/05/01 09:46:16;;;;;;;3.05;1.95;;;;;;;30.56;27.31;94915.66;5054796;28;20730;-85
2022/05/01 09:48:45;;;;;;;2.28;2.08;;;;;;;30.57;26.83;94925.19;5034776;28;20195;-84
2022/05/01 09:51:17;;;;;;;2.20;2.00;;;;;;;30.54;26.75;94941.53;5053719;28;20195;-83
2022/05/01 09:53:54;;;;;;;2.22;2.13;;;;;;;30.20;27.14;94880.38;5052940;28;20195;-84
2022/05/01 09:56:23;;;;;;;2.50;2.30;;;;;;;30.29;26.53;94896.53;5035616;28;20351;-84
2022/05/01 09:59:00;;;;;;;1.88;1.77;;;;;;;29.55;26.47;94787.38;5052178;28;20195;-83
2022/05/01 10:01:30;;;;;;;2.80;2.10;;;;;;;30.26;26.80;94911.00;5052954;28;20195;-82
2022/05/01 10:04:01;;;;;;;2.30;2.10;;;;;;;30.22;26.54;94909.91;5053349;28;20195;-84
2022/05/01 10:06:31;;;;;;;2.47;2.28;;;;;;;29.91;26.71;94861.44;5052923;28;20200;-84
2022/05/01 10:09:00;;;;;;;2.53;2.33;;;;;;;30.10;26.72;94910.09;5052264;28;20202;-83
2022/05/01 10:11:34;;;;;;;2.30;2.10;;;;;;;30.05;26.99;94914.53;5051972;28;20223;-85
2022/05/01 10:14:04;;;;;;;1.95;1.85;;;;;;;29.63;26.34;94862.59;5017025;28;20191;-84
2022/05/01 10:17:00;;;;;;;2.30;1.75;;;;;;;29.81;26.45;94900.94;5034407;28;20191;-83
2022/05/01 10:19:35;;;;;;;2.33;2.13;;;;;;;29.44;26.47;94857.66;5052581;28;20246;-86
2022/05/01 10:22:22;;;;;;;2.60;1.90;;;;;;;28.44;26.34;94738.75;5037348;28;20202;-84
2022/05/01 10:25:21;;;;;;;3.17;1.85;;;;;;;28.79;25.96;94800.69;5032033;28;20191;-85
2022/05/01 10:28:06;;;;;;;2.33;2.13;;;;;;;29.09;26.59;94871.31;5029743;28;20188;-84
2022/05/01 10:33:51;;;;;;;2.45;2.25;;;;;;;28.92;26.73;94878.47;5019655;28;20725;-84
2022/05/01 10:36:51;;;;;;;2.72;2.25;;;;;;;28.77;26.55;94879.13;5034754;28;20215;-84
2022/05/01 10:42:14;;;;;;;4.72;2.20;;;;;;;28.53;26.77;94867.25;5031520;28;20188;-83
2022/05/01 10:44:45;;;;;;;2.40;2.20;;;;;;;28.32;26.45;94848.56;5032815;28;20698;-83
2022/05/01 10:50:16;;;;;;;2.55;2.35;;;;;;;28.25;26.86;94855.84;5032841;28;20211;-83
2022/05/01 10:53:11;;;;;;;2.03;1.85;;;;;;;28.14;27.12;94859.38;5007314;28;20195;-84
2022/05/01 10:55:48;;;;;;;2.83;2.45;;;;;;;27.40;27.39;94744.81;5041084;28;20196;-84
2022/05/01 10:58:37;;;;;;;3.47;2.50;;;;;;;27.93;27.62;94853.84;5018047;28;20234;-83
2022/05/01 11:01:08;;;;;;;5.65;2.20;;;;;;;27.61;27.59;94816.84;5014010;28;20292;-85
2022/05/01 11:03:39;;;;;;;2.67;1.83;;;;;;;27.77;27.76;94846.81;5030448;28;20279;-84
2022/05/01 11:06:22;;;;;;;2.38;2.13;;;;;;;27.62;27.36;94826.31;5031676;28;20207;-84
2022/05/01 11:09:02;;;;;;;1.90;1.80;;;;;;;26.86;27.84;94713.00;4971245;28;20285;-84
2022/05/01 11:11:30;;;;;;;6.05;2.35;;;;;;;27.60;27.56;94832.84;4970795;28;20612;-84
2022/05/01 11:14:02;;;;;;;2.58;2.38;;;;;;;27.48;27.83;94832.94;4970818;28;20197;-83
2022/05/01 11:16:51;;;;;;;3.28;2.08;;;;;;;27.42;28.04;94828.66;4970651;28;20233;-83
2022/05/01 11:19:19;;;;;;;2.38;2.17;;;;;;;27.43;27.85;94835.50;4971254;28;20202;-83
2022/05/01 11:21:55;;;;;;;2.20;2.10;;;;;;;27.35;27.99;94826.16;4970523;28;20194;-85
2022/05/01 11:24:47;;;;;;;3.40;2.13;;;;;;;27.30;27.75;94820.06;4974899;28;20701;-84
2022/05/01 11:30:33;;;;;;;2.33;2.00;;;;;;;27.15;28.14;94823.22;5030014;28;20203;-84
2022/05/01 11:33:08;;;;;;;2.90;2.00;;;;;;;26.80;27.98;94776.13;5031248;28;20563;-83
2022/05/01 11:36:04;;;;;;;3.25;2.30;;;;;;;26.96;27.99;94822.59;5002978;28;20316;-83
2022/05/01 11:38:57;;;;;;;2.22;2.00;;;;;;;26.85;28.40;94818.22;5013320;28;20199;-84
2022/05/01 11:41:51;;;;;;;3.53;2.30;;;;;;;26.74;28.00;94815.41;5015694;28;20621;-85
2022/05/01 11:44:26;;;;;;;3.67;2.55;;;;;;;26.65;28.60;94813.41;5014717;28;20219;-85
2022/05/01 11:47:00;;;;;;;3.90;2.17;;;;;;;26.59;28.34;94806.47;5031113;28;20581;-85
2022/05/01 11:49:40;;;;;;;2.35;2.15;;;;;;;26.22;28.27;94754.34;5031129;28;20184;-84
2022/05/01 11:52:22;;;;;;;2.90;2.70;;;;;;;26.49;28.82;94807.06;5013847;28;20583;-86
2022/05/01 11:54:55;;;;;;;2.58;2.35;;;;;;;26.46;28.74;94797.03;5031113;28;20229;-84
2022/05/01 12:03:06;;;;;;;2.65;2.45;;;;;;;26.26;28.87;94766.75;4935387;29;20194;-84
2022/05/01 12:05:45;;;;;;;2.30;2.08;;;;;;;25.96;28.88;94725.03;4918479;29;20191;-85
2022/05/01 12:08:13;;;;;;;2.63;2.10;;;;;;;26.34;29.05;94788.38;4933640;29;20295;-83
2022/05/01 12:10:46;;;;;;;2.83;2.00;;;;;;;26.31;29.14;94781.78;4933523;29;20706;-87
2022/05/01 12:13:27;;;;;;;2.30;2.10;;;;;;;26.17;28.97;94759.50;4916977;29;20195;-85
2022/05/01 12:15:59;;;;;;;2.33;2.17;;;;;;;26.25;29.11;94773.03;4916804;29;20195;-84
2022/05/01 12:18:28;;;;;;;3.42;1.92;;;;;;;25.96;29.13;94743.38;4916386;29;20195;-84
2022/05/01 12:20:54;;;;;;;2.38;1.95;;;;;;;25.75;29.05;94702.84;4931197;29;20235;-85
2022/05/01 12:23:22;;;;;;;2.30;2.10;;;;;;;26.14;29.37;94763.38;4925356;29;20238;-83
2022/05/01 12:28:42;;;;;;;2.00;1.90;;;;;;;25.89;29.54;94745.31;4912128;29;20207;-85
2022/05/01 12:31:11;;;;;;;2.38;2.20;;;;;;;25.88;29.57;94748.19;4896468;29;20695;-84
2022/05/01 12:36:27;;;;;;;3.25;2.30;;;;;;;25.69;29.78;94729.16;4927400;28;20240;-84
2022/05/01 12:39:02;;;;;;;2.97;2.67;;;;;;;25.73;29.72;94741.59;4970994;28;20748;-84
2022/05/01 12:44:18;;;;;;;2.40;2.20;;;;;;;25.58;29.54;94716.88;5030453;28;20733;-84
2022/05/01 12:46:55;;;;;;;3.22;2.78;;;;;;;25.53;30.07;94715.75;5013014;28;20215;-84
2022/05/01 12:49:27;;;;;;;2.63;2.42;;;;;;;25.56;29.89;94727.59;5001644;28;20200;-85
2022/05/01 12:51:58;;;;;;;2.30;2.10;;;;;;;25.53;30.06;94728.84;5017455;28;20286;-84
2022/05/01 12:54:25;;;;;;;2.20;2.10;;;;;;;25.58;30.24;94733.38;5034980;28;20820;-83
2022/05/01 12:56:59;;;;;;;2.53;2.20;;;;;;;25.43;29.85;94718.16;5035735;28;20198;-83
2022/05/01 13:02:19;;;;;;;3.17;2.05;;;;;;;25.39;30.29;94727.50;5033496;28;20643;-84